sensor_id;sensor_type;location;lat;lon;timestamp;pressure;altitude;pressure_sealevel;temperature;humidity
30873;BME280;17579;42.690;2.586;2023-10-09T00:01:18;97937.19;;;21.76;50.63
30873;BME280;17579;42.690;2.586;2023-10-09T00:03:44;97942.78;;;21.74;49.90
30873;BME280;17579;42.690;2.586;2023-10-09T00:06:21;97950.81;;;21.68;50.18
30873;BME280;17579;42.690;2.586;2023-10-09T00:09:04;97946.47;;;21.73;49.31
30873;BME280;17579;42.690;2.586;2023-10-09T00:11:50;97943.16;;;21.71;49.49
30873;BME280;17579;42.690;2.586;2023-10-09T00:14:26;97937.75;;;21.65;48.33
30873;BME280;17579;42.690;2.586;2023-10-09T00:16:56;97938.41;;;21.67;48.20
30873;BME280;17579;42.690;2.586;2023-10-09T00:19:30;97935.06;;;21.65;48.28
30873;BME280;17579;42.690;2.586;2023-10-09T00:21:59;97944.56;;;21.60;47.42
30873;BME280;17579;42.690;2.586;2023-10-09T00:24:32;97944.56;;;21.60;47.70
30873;BME280;17579;42.690;2.586;2023-10-09T00:26:58;97937.31;;;21.61;46.76
30873;BME280;17579;42.690;2.586;2023-10-09T00:29:44;97937.13;;;21.62;45.96
30873;BME280;17579;42.690;2.586;2023-10-09T00:32:14;97938.75;;;21.63;45.64
30873;BME280;17579;42.690;2.586;2023-10-09T00:34:40;97934.66;;;21.68;45.26
30873;BME280;17579;42.690;2.586;2023-10-09T00:37:07;97935.91;;;21.65;45.21
30873;BME280;17579;42.690;2.586;2023-10-09T00:39:42;97936.72;;;21.66;44.66
30873;BME280;17579;42.690;2.586;2023-10-09T00:42:21;97933.38;;;21.63;44.18
30873;BME280;17579;42.690;2.586;2023-10-09T00:44:56;97934.44;;;21.62;44.33
30873;BME280;17579;42.690;2.586;2023-10-09T00:47:22;97927.59;;;21.60;43.95
30873;BME280;17579;42.690;2.586;2023-10-09T00:50:19;97925.91;;;21.52;45.17
30873;BME280;17579;42.690;2.586;2023-10-09T00:52:47;97927.78;;;21.58;43.70
30873;BME280;17579;42.690;2.586;2023-10-09T00:55:18;97927.13;;;21.56;43.55
30873;BME280;17579;42.690;2.586;2023-10-09T00:57:45;97929.00;;;21.56;43.44
30873;BME280;17579;42.690;2.586;2023-10-09T01:00:18;97924.03;;;21.53;43.37
30873;BME280;17579;42.690;2.586;2023-10-09T01:02:59;97922.81;;;21.55;43.11
30873;BME280;17579;42.690;2.586;2023-10-09T01:05:37;97920.31;;;21.54;42.83
30873;BME280;17579;42.690;2.586;2023-10-09T01:08:04;97918.63;;;21.53;42.88
30873;BME280;17579;42.690;2.586;2023-10-09T01:13:15;97915.13;;;21.52;43.02
30873;BME280;17579;42.690;2.586;2023-10-09T01:15:43;97910.56;;;21.53;42.45
30873;BME280;17579;42.690;2.586;2023-10-09T01:18:13;97915.94;;;21.53;43.22
30873;BME280;17579;42.690;2.586;2023-10-09T01:20:39;97910.16;;;21.56;42.63
30873;BME280;17579;42.690;2.586;2023-10-09T01:25:55;97903.56;;;21.58;42.02
30873;BME280;17579;42.690;2.586;2023-10-09T01:28:23;97912.44;;;21.59;42.15
30873;BME280;17579;42.690;2.586;2023-10-09T01:30:51;97910.97;;;21.56;42.66
30873;BME280;17579;42.690;2.586;2023-10-09T01:33:17;97911.19;;;21.55;42.85
30873;BME280;17579;42.690;2.586;2023-10-09T01:35:50;97911.19;;;21.55;43.66
30873;BME280;17579;42.690;2.586;2023-10-09T01:38:21;97907.69;;;21.54;43.94
30873;BME280;17579;42.690;2.586;2023-10-09T01:40:50;97907.69;;;21.54;43.69
30873;BME280;17579;42.690;2.586;2023-10-09T01:43:33;97905.38;;;21.51;44.05
30873;BME280;17579;42.690;2.586;2023-10-09T01:46:04;97909.34;;;21.55;43.91
30873;BME280;17579;42.690;2.586;2023-10-09T01:48:35;97909.91;;;21.51;44.10
30873;BME280;17579;42.690;2.586;2023-10-09T01:51:22;97915.06;;;21.45;44.34
30873;BME280;17579;42.690;2.586;2023-10-09T01:53:48;97909.66;;;21.45;43.80
30873;BME280;17579;42.690;2.586;2023-10-09T01:56:25;97900.56;;;21.46;43.90
30873;BME280;17579;42.690;2.586;2023-10-09T01:58:50;97903.69;;;21.50;43.59
30873;BME280;17579;42.690;2.586;2023-10-09T02:01:16;97900.00;;;21.51;43.26
30873;BME280;17579;42.690;2.586;2023-10-09T02:04:06;97896.41;;;21.44;44.05
30873;BME280;17579;42.690;2.586;2023-10-09T02:06:39;97898.13;;;21.52;43.29
30873;BME280;17579;42.690;2.586;2023-10-09T02:09:05;97901.00;;;21.50;43.33
30873;BME280;17579;42.690;2.586;2023-10-09T02:11:34;97902.88;;;21.50;42.90
30873;BME280;17579;42.690;2.586;2023-10-09T02:14:04;97890.44;;;21.49;43.16
30873;BME280;17579;42.690;2.586;2023-10-09T02:16:48;97892.91;;;21.50;42.83
30873;BME280;17579;42.690;2.586;2023-10-09T02:19:28;97893.13;;;21.49;42.90
30873;BME280;17579;42.690;2.586;2023-10-09T02:21:57;97883.56;;;21.46;42.64
30873;BME280;17579;42.690;2.586;2023-10-09T02:24:25;97886.47;;;21.44;42.23
30873;BME280;17579;42.690;2.586;2023-10-09T02:27:11;97887.31;;;21.45;41.38
30873;BME280;17579;42.690;2.586;2023-10-09T02:29:37;97893.94;;;21.42;41.59
30873;BME280;17579;42.690;2.586;2023-10-09T02:32:04;97893.47;;;21.39;41.26
30873;BME280;17579;42.690;2.586;2023-10-09T02:37:44;97886.41;;;21.31;41.66
30873;BME280;17579;42.690;2.586;2023-10-09T02:40:14;97885.53;;;21.24;42.36
30873;BME280;17579;42.690;2.586;2023-10-09T02:42:56;97889.25;;;21.23;42.09
30873;BME280;17579;42.690;2.586;2023-10-09T02:45:24;97895.22;;;21.18;42.29
30873;BME280;17579;42.690;2.586;2023-10-09T02:47:50;97894.16;;;21.13;42.31
30873;BME280;17579;42.690;2.586;2023-10-09T02:50:16;97894.94;;;21.06;42.22
30873;BME280;17579;42.690;2.586;2023-10-09T02:53:04;97885.41;;;21.04;42.59
30873;BME280;17579;42.690;2.586;2023-10-09T02:55:37;97891.19;;;21.01;42.09
30873;BME280;17579;42.690;2.586;2023-10-09T02:58:08;97887.66;;;21.00;42.42
30873;BME280;17579;42.690;2.586;2023-10-09T03:00:39;97890.13;;;21.02;41.88
30873;BME280;17579;42.690;2.586;2023-10-09T03:03:09;97888.09;;;21.04;42.00
30873;BME280;17579;42.690;2.586;2023-10-09T03:05:37;97882.53;;;21.05;41.93
30873;BME280;17579;42.690;2.586;2023-10-09T03:08:25;97884.59;;;21.03;42.26
30873;BME280;17579;42.690;2.586;2023-10-09T03:10:56;97887.31;;;21.10;41.64
30873;BME280;17579;42.690;2.586;2023-10-09T03:13:25;97881.72;;;21.11;41.36
30873;BME280;17579;42.690;2.586;2023-10-09T03:15:51;97887.97;;;21.12;40.81
30873;BME280;17579;42.690;2.586;2023-10-09T03:18:17;97886.50;;;21.09;40.61
30873;BME280;17579;42.690;2.586;2023-10-09T03:20:46;97888.16;;;21.10;40.55
30873;BME280;17579;42.690;2.586;2023-10-09T03:23:11;97886.09;;;21.13;39.81
30873;BME280;17579;42.690;2.586;2023-10-09T03:25:42;97893.97;;;21.14;39.88
30873;BME280;17579;42.690;2.586;2023-10-09T03:28:11;97885.06;;;21.14;39.41
30873;BME280;17579;42.690;2.586;2023-10-09T03:30:37;97894.16;;;21.13;39.06
30873;BME280;17579;42.690;2.586;2023-10-09T03:33:05;97887.09;;;21.11;39.41
30873;BME280;17579;42.690;2.586;2023-10-09T03:35:32;97885.28;;;21.12;39.08
30873;BME280;17579;42.690;2.586;2023-10-09T03:38:03;97884.63;;;21.10;39.39
30873;BME280;17579;42.690;2.586;2023-10-09T03:40:44;97892.69;;;21.10;39.44
30873;BME280;17579;42.690;2.586;2023-10-09T03:43:34;97887.72;;;21.07;39.53
30873;BME280;17579;42.690;2.586;2023-10-09T03:46:04;97885.69;;;21.16;38.60
30873;BME280;17579;42.690;2.586;2023-10-09T03:48:30;97890.03;;;21.17;38.05
30873;BME280;17579;42.690;2.586;2023-10-09T03:50:57;97890.88;;;21.17;38.07
30873;BME280;17579;42.690;2.586;2023-10-09T03:53:48;97899.78;;;21.18;38.10
30873;BME280;17579;42.690;2.586;2023-10-09T03:56:14;97895.63;;;21.15;37.77
30873;BME280;17579;42.690;2.586;2023-10-09T03:58:45;97896.84;;;21.13;38.30
30873;BME280;17579;42.690;2.586;2023-10-09T04:01:19;97897.44;;;21.08;38.28
30873;BME280;17579;42.690;2.586;2023-10-09T04:03:54;97893.47;;;21.04;38.64
30873;BME280;17579;42.690;2.586;2023-10-09T04:06:21;97888.50;;;21.01;38.47
30873;BME280;17579;42.690;2.586;2023-10-09T04:08:56;97887.66;;;21.00;39.71
30873;BME280;17579;42.690;2.586;2023-10-09T04:14:30;97894.50;;;21.03;40.11
30873;BME280;17579;42.690;2.586;2023-10-09T04:16:56;97889.97;;;21.03;40.77
30873;BME280;17579;42.690;2.586;2023-10-09T04:19:28;97893.69;;;21.02;41.39
30873;BME280;17579;42.690;2.586;2023-10-09T04:21:53;97899.88;;;21.03;41.88
30873;BME280;17579;42.690;2.586;2023-10-09T04:24:21;97892.84;;;21.02;42.66
30873;BME280;17579;42.690;2.586;2023-10-09T04:26:46;97905.25;;;21.03;42.61
30873;BME280;17579;42.690;2.586;2023-10-09T04:29:15;97901.09;;;21.00;42.44
30873;BME280;17579;42.690;2.586;2023-10-09T04:31:42;97904.19;;;20.97;43.07
30873;BME280;17579;42.690;2.586;2023-10-09T04:34:12;97900.22;;;20.93;42.68
30873;BME280;17579;42.690;2.586;2023-10-09T04:36:41;97897.53;;;20.93;43.50
30873;BME280;17579;42.690;2.586;2023-10-09T04:39:08;97896.91;;;20.91;43.39
30873;BME280;17579;42.690;2.586;2023-10-09T04:41:33;97902.28;;;20.91;43.33
30873;BME280;17579;42.690;2.586;2023-10-09T04:44:28;97900.41;;;20.91;43.77
30873;BME280;17579;42.690;2.586;2023-10-09T04:47:01;97897.72;;;20.91;43.70
30873;BME280;17579;42.690;2.586;2023-10-09T04:49:27;97906.84;;;20.90;43.46
30873;BME280;17579;42.690;2.586;2023-10-09T04:51:54;97903.91;;;20.85;43.87
30873;BME280;17579;42.690;2.586;2023-10-09T04:54:20;97905.75;;;20.85;43.96
30873;BME280;17579;42.690;2.586;2023-10-09T04:57:04;97908.44;;;20.85;43.64
30873;BME280;17579;42.690;2.586;2023-10-09T04:59:46;97911.13;;;20.85;43.75
30873;BME280;17579;42.690;2.586;2023-10-09T05:05:03;97916.25;;;20.80;43.95
30873;BME280;17579;42.690;2.586;2023-10-09T05:07:30;97911.47;;;20.75;43.91
30873;BME280;17579;42.690;2.586;2023-10-09T05:09:56;97912.47;;;20.74;44.06
30873;BME280;17579;42.690;2.586;2023-10-09T05:12:32;97905.63;;;20.71;44.10
30873;BME280;17579;42.690;2.586;2023-10-09T05:15:03;97913.44;;;20.66;44.01
30873;BME280;17579;42.690;2.586;2023-10-09T05:17:40;97914.28;;;20.67;44.24
30873;BME280;17579;42.690;2.586;2023-10-09T05:20:17;97913.44;;;20.66;43.22
30873;BME280;17579;42.690;2.586;2023-10-09T05:22:43;97916.97;;;20.67;43.77
30873;BME280;17579;42.690;2.586;2023-10-09T05:25:27;97918.81;;;20.66;43.38
30873;BME280;17579;42.690;2.586;2023-10-09T05:27:54;97922.34;;;20.67;43.82
30873;BME280;17579;42.690;2.586;2023-10-09T05:30:39;97928.72;;;20.66;44.08
30873;BME280;17579;42.690;2.586;2023-10-09T05:33:30;97925.97;;;20.59;43.75
30873;BME280;17579;42.690;2.586;2023-10-09T05:36:07;97919.00;;;20.65;44.58
30873;BME280;17579;42.690;2.586;2023-10-09T05:38:37;97918.34;;;20.63;44.58
30873;BME280;17579;42.690;2.586;2023-10-09T05:41:12;97926.22;;;20.64;44.31
30873;BME280;17579;42.690;2.586;2023-10-09T05:44:00;97922.91;;;20.62;44.38
30873;BME280;17579;42.690;2.586;2023-10-09T05:46:33;97925.13;;;20.58;44.25
30873;BME280;17579;42.690;2.586;2023-10-09T05:49:01;97932.09;;;20.53;44.73
30873;BME280;17579;42.690;2.586;2023-10-09T05:52:08;97939.34;;;20.52;44.78
30873;BME280;17579;42.690;2.586;2023-10-09T05:54:53;97937.31;;;20.54;44.67
30873;BME280;17579;42.690;2.586;2023-10-09T05:57:19;97935.19;;;20.50;44.67
30873;BME280;17579;42.690;2.586;2023-10-09T06:00:10;97934.97;;;20.51;44.75
30873;BME280;17579;42.690;2.586;2023-10-09T06:02:45;97932.69;;;20.48;45.25
30873;BME280;17579;42.690;2.586;2023-10-09T06:05:14;97944.28;;;20.49;44.97
30873;BME280;17579;42.690;2.586;2023-10-09T06:07:41;97939.06;;;20.47;44.86
30873;BME280;17579;42.690;2.586;2023-10-09T06:10:26;97940.56;;;20.50;45.00
30873;BME280;17579;42.690;2.586;2023-10-09T06:13:08;97941.75;;;20.47;44.79
30873;BME280;17579;42.690;2.586;2023-10-09T06:15:56;97954.66;;;20.52;44.78
30873;BME280;17579;42.690;2.586;2023-10-09T06:18:25;97951.31;;;20.50;44.91
30873;BME280;17579;42.690;2.586;2023-10-09T06:20:54;97953.78;;;20.51;45.13
30873;BME280;17579;42.690;2.586;2023-10-09T06:23:43;97950.03;;;20.46;44.99
30873;BME280;17579;42.690;2.586;2023-10-09T06:26:29;97952.41;;;20.55;45.24
30873;BME280;17579;42.690;2.586;2023-10-09T06:28:58;97947.88;;;20.56;45.05
30873;BME280;17579;42.690;2.586;2023-10-09T06:31:30;97950.75;;;20.54;45.05
30873;BME280;17579;42.690;2.586;2023-10-09T06:34:15;97954.13;;;20.63;45.53
30873;BME280;17579;42.690;2.586;2023-10-09T06:36:50;97955.53;;;20.59;45.21
30873;BME280;17579;42.690;2.586;2023-10-09T06:39:16;97953.09;;;20.64;45.14
30873;BME280;17579;42.690;2.586;2023-10-09T06:42:02;97960.63;;;20.69;45.42
30873;BME280;17579;42.690;2.586;2023-10-09T06:44:28;97964.97;;;20.70;45.39
30873;BME280;17579;42.690;2.586;2023-10-09T06:47:16;97965.44;;;20.73;45.16
30873;BME280;17579;42.690;2.586;2023-10-09T06:49:44;97972.91;;;20.78;45.06
30873;BME280;17579;42.690;2.586;2023-10-09T06:52:29;97973.78;;;20.85;44.90
30873;BME280;17579;42.690;2.586;2023-10-09T06:55:15;97976.75;;;20.90;44.72
30873;BME280;17579;42.690;2.586;2023-10-09T06:57:57;97984.84;;;20.97;44.83
30873;BME280;17579;42.690;2.586;2023-10-09T07:00:39;97990.50;;;21.02;44.64
30873;BME280;17579;42.690;2.586;2023-10-09T07:03:07;97987.63;;;21.04;44.10
30873;BME280;17579;42.690;2.586;2023-10-09T07:08:33;97990.41;;;21.17;43.92
30873;BME280;17579;42.690;2.586;2023-10-09T07:11:03;97990.19;;;21.19;44.11
30873;BME280;17579;42.690;2.586;2023-10-09T07:13:33;97997.50;;;21.25;43.51
30873;BME280;17579;42.690;2.586;2023-10-09T07:16:09;97993.22;;;21.31;43.95
30873;BME280;17579;42.690;2.586;2023-10-09T07:18:56;97993.25;;;21.37;42.95
30873;BME280;17579;42.690;2.586;2023-10-09T07:21:36;97990.81;;;21.42;42.63
30873;BME280;17579;42.690;2.586;2023-10-09T07:24:07;97991.22;;;21.46;41.63
30873;BME280;17579;42.690;2.586;2023-10-09T07:26:33;97999.38;;;21.53;40.83
30873;BME280;17579;42.690;2.586;2023-10-09T07:29:23;97995.88;;;21.52;42.09
30873;BME280;17579;42.690;2.586;2023-10-09T07:32:06;98009.16;;;21.60;42.06
30873;BME280;17579;42.690;2.586;2023-10-09T07:34:38;98005.72;;;21.73;41.68
30873;BME280;17579;42.690;2.586;2023-10-09T07:37:21;98003.47;;;21.77;41.35
30873;BME280;17579;42.690;2.586;2023-10-09T07:39:50;98003.28;;;21.78;41.41
30873;BME280;17579;42.690;2.586;2023-10-09T07:42:23;98006.00;;;21.85;41.74
30873;BME280;17579;42.690;2.586;2023-10-09T07:44:49;98007.91;;;21.91;41.50
30873;BME280;17579;42.690;2.586;2023-10-09T07:47:16;98009.16;;;21.95;41.56
30873;BME280;17579;42.690;2.586;2023-10-09T07:49:43;98011.06;;;22.02;41.41
30873;BME280;17579;42.690;2.586;2023-10-09T07:52:25;98008.97;;;22.04;41.90
30873;BME280;17579;42.690;2.586;2023-10-09T07:54:51;98009.47;;;22.14;41.49
30873;BME280;17579;42.690;2.586;2023-10-09T07:57:20;98006.16;;;22.19;41.18
30873;BME280;17579;42.690;2.586;2023-10-09T07:59:59;98013.00;;;22.21;41.33
30873;BME280;17579;42.690;2.586;2023-10-09T08:02:28;98007.44;;;22.29;40.64
30873;BME280;17579;42.690;2.586;2023-10-09T08:04:59;98010.19;;;22.36;40.52
30873;BME280;17579;42.690;2.586;2023-10-09T08:07:29;98002.13;;;22.43;40.32
30873;BME280;17579;42.690;2.586;2023-10-09T08:09:56;98011.88;;;22.51;39.82
30873;BME280;17579;42.690;2.586;2023-10-09T08:12:25;98009.22;;;22.57;39.64
30873;BME280;17579;42.690;2.586;2023-10-09T08:15:09;98016.50;;;22.70;40.46
30873;BME280;17579;42.690;2.586;2023-10-09T08:17:42;98017.13;;;22.86;39.77
30873;BME280;17579;42.690;2.586;2023-10-09T08:20:29;98008.03;;;23.00;39.46
30873;BME280;17579;42.690;2.586;2023-10-09T08:23:18;98013.88;;;23.10;38.92
30873;BME280;17579;42.690;2.586;2023-10-09T08:25:47;98010.38;;;23.23;38.33
30873;BME280;17579;42.690;2.586;2023-10-09T08:28:32;98015.75;;;23.30;37.85
30873;BME280;17579;42.690;2.586;2023-10-09T08:30:59;98017.00;;;23.34;38.04
30873;BME280;17579;42.690;2.586;2023-10-09T08:33:25;98018.44;;;23.37;37.67
30873;BME280;17579;42.690;2.586;2023-10-09T08:35:53;98016.78;;;23.35;37.51
30873;BME280;17579;42.690;2.586;2023-10-09T08:38:24;98018.84;;;23.40;37.26
30873;BME280;17579;42.690;2.586;2023-10-09T08:40:54;98018.84;;;23.47;38.40
30873;BME280;17579;42.690;2.586;2023-10-09T08:43:23;98023.84;;;23.57;36.97
30873;BME280;17579;42.690;2.586;2023-10-09T08:48:36;98018.81;;;23.67;37.62
30873;BME280;17579;42.690;2.586;2023-10-09T08:51:05;98016.13;;;23.74;37.13
30873;BME280;17579;42.690;2.586;2023-10-09T08:53:31;98016.28;;;23.85;37.18
30873;BME280;17579;42.690;2.586;2023-10-09T08:55:58;98019.63;;;23.94;36.75
30873;BME280;17579;42.690;2.586;2023-10-09T08:58:24;98018.16;;;24.05;36.24
30873;BME280;17579;42.690;2.586;2023-10-09T09:00:56;98015.41;;;24.12;36.12
30873;BME280;17579;42.690;2.586;2023-10-09T09:03:24;98016.00;;;24.20;36.00
30873;BME280;17579;42.690;2.586;2023-10-09T09:08:24;98011.38;;;24.28;35.75
30873;BME280;17579;42.690;2.586;2023-10-09T09:11:15;98021.56;;;24.32;36.32
30873;BME280;17579;42.690;2.586;2023-10-09T09:19:05;98014.34;;;24.65;36.56
30873;BME280;17579;42.690;2.586;2023-10-09T09:21:56;98009.28;;;24.75;36.10
30873;BME280;17579;42.690;2.586;2023-10-09T09:24:25;98015.50;;;24.82;36.02
30873;BME280;17579;42.690;2.586;2023-10-09T09:26:57;98013.19;;;24.86;36.47
30873;BME280;17579;42.690;2.586;2023-10-09T09:31:55;98007.22;;;25.02;36.16
30873;BME280;17579;42.690;2.586;2023-10-09T09:34:47;98005.16;;;25.04;35.56
30873;BME280;17579;42.690;2.586;2023-10-09T09:37:18;98011.34;;;25.12;35.46
30873;BME280;17579;42.690;2.586;2023-10-09T09:39:45;98008.78;;;25.17;35.70
30873;BME280;17579;42.690;2.586;2023-10-09T09:42:17;98001.44;;;25.24;35.67
30873;BME280;17579;42.690;2.586;2023-10-09T09:44:44;98006.03;;;25.23;35.64
30873;BME280;17579;42.690;2.586;2023-10-09T09:47:13;98008.75;;;25.23;36.09
30873;BME280;17579;42.690;2.586;2023-10-09T09:49:48;98010.56;;;25.30;35.59
30873;BME280;17579;42.690;2.586;2023-10-09T09:52:16;98011.97;;;25.39;35.88
30873;BME280;17579;42.690;2.586;2023-10-09T09:54:44;98010.41;;;25.50;34.92
30873;BME280;17579;42.690;2.586;2023-10-09T09:57:24;98006.19;;;25.54;35.44
30873;BME280;17579;42.690;2.586;2023-10-09T09:59:54;98005.53;;;25.58;35.06
30873;BME280;17579;42.690;2.586;2023-10-09T10:02:28;98010.31;;;25.63;35.23
30873;BME280;17579;42.690;2.586;2023-10-09T10:04:57;98007.66;;;25.75;34.82
30873;BME280;17579;42.690;2.586;2023-10-09T10:07:34;98009.00;;;25.84;35.11
30873;BME280;17579;42.690;2.586;2023-10-09T10:12:51;98008.38;;;25.89;33.73
30873;BME280;17579;42.690;2.586;2023-10-09T10:18:14;97999.56;;;25.93;34.66
30873;BME280;17579;42.690;2.586;2023-10-09T10:21:11;98000.69;;;26.04;34.09
30873;BME280;17579;42.690;2.586;2023-10-09T10:23:43;97995.94;;;26.18;34.00
30873;BME280;17579;42.690;2.586;2023-10-09T10:26:21;97990.06;;;26.21;34.11
30873;BME280;17579;42.690;2.586;2023-10-09T10:34:03;97984.03;;;26.38;33.73
30873;BME280;17579;42.690;2.586;2023-10-09T10:36:36;97985.56;;;26.45;34.13
30873;BME280;17579;42.690;2.586;2023-10-09T10:39:13;97981.13;;;26.51;34.18
30873;BME280;17579;42.690;2.586;2023-10-09T10:44:25;97983.38;;;26.54;34.28
30873;BME280;17579;42.690;2.586;2023-10-09T10:46:59;97976.19;;;26.60;34.11
30873;BME280;17579;42.690;2.586;2023-10-09T10:49:25;97977.16;;;26.66;33.59
30873;BME280;17579;42.690;2.586;2023-10-09T10:52:07;97980.19;;;26.57;33.57
30873;BME280;17579;42.690;2.586;2023-10-09T10:54:36;97975.81;;;26.56;33.62
30873;BME280;17579;42.690;2.586;2023-10-09T10:57:02;97966.63;;;26.57;34.13
30873;BME280;17579;42.690;2.586;2023-10-09T10:59:37;97972.53;;;26.66;33.93
30873;BME280;17579;42.690;2.586;2023-10-09T11:04:48;97962.22;;;26.75;34.34
30873;BME280;17579;42.690;2.586;2023-10-09T11:07:34;97960.59;;;26.86;34.03
30873;BME280;17579;42.690;2.586;2023-10-09T11:09:59;97961.91;;;26.95;33.86
30873;BME280;17579;42.690;2.586;2023-10-09T11:12:29;97957.31;;;26.95;33.85
30873;BME280;17579;42.690;2.586;2023-10-09T11:14:59;97950.38;;;27.00;34.23
30873;BME280;17579;42.690;2.586;2023-10-09T11:17:25;97952.94;;;27.06;34.56
30873;BME280;17579;42.690;2.586;2023-10-09T11:19:54;97949.66;;;27.16;33.96
30873;BME280;17579;42.690;2.586;2023-10-09T11:22:20;97956.16;;;27.15;34.40
30873;BME280;17579;42.690;2.586;2023-10-09T11:24:50;97950.38;;;27.11;34.63
30873;BME280;17579;42.690;2.586;2023-10-09T11:27:35;97955.09;;;27.16;34.64
30873;BME280;17579;42.690;2.586;2023-10-09T11:30:05;97940.22;;;27.19;34.33
30873;BME280;17579;42.690;2.586;2023-10-09T11:32:35;97936.09;;;27.16;34.12
30873;BME280;17579;42.690;2.586;2023-10-09T11:35:11;97937.50;;;27.19;34.21
30873;BME280;17579;42.690;2.586;2023-10-09T11:38:00;97930.53;;;27.23;33.92
30873;BME280;17579;42.690;2.586;2023-10-09T11:40:35;97924.41;;;27.27;33.27
30873;BME280;17579;42.690;2.586;2023-10-09T11:43:01;97922.88;;;27.31;33.30
30873;BME280;17579;42.690;2.586;2023-10-09T11:45:39;97917.94;;;27.40;33.06
30873;BME280;17579;42.690;2.586;2023-10-09T11:48:25;97911.69;;;27.40;33.73
30873;BME280;17579;42.690;2.586;2023-10-09T11:51:01;97907.16;;;27.45;33.69
30873;BME280;17579;42.690;2.586;2023-10-09T11:53:27;97905.38;;;27.51;34.12
30873;BME280;17579;42.690;2.586;2023-10-09T11:56:01;97906.69;;;27.48;33.94
30873;BME280;17579;42.690;2.586;2023-10-09T11:58:30;97907.63;;;27.54;33.82
30873;BME280;17579;42.690;2.586;2023-10-09T12:01:11;97900.31;;;27.55;34.49
30873;BME280;17579;42.690;2.586;2023-10-09T12:03:44;97902.91;;;27.61;34.33
30873;BME280;17579;42.690;2.586;2023-10-09T12:06:30;97895.00;;;27.60;35.12
30873;BME280;17579;42.690;2.586;2023-10-09T12:08:57;97890.38;;;27.60;35.44
30873;BME280;17579;42.690;2.586;2023-10-09T12:11:26;97893.34;;;27.59;36.03
30873;BME280;17579;42.690;2.586;2023-10-09T12:13:53;97890.84;;;27.57;36.48
30873;BME280;17579;42.690;2.586;2023-10-09T12:16:39;97890.34;;;27.72;36.73
30873;BME280;17579;42.690;2.586;2023-10-09T12:19:15;97884.56;;;27.69;37.01
30873;BME280;17579;42.690;2.586;2023-10-09T12:21:43;97879.13;;;27.69;36.70
30873;BME280;17579;42.690;2.586;2023-10-09T12:24:12;97873.69;;;27.69;36.58
30873;BME280;17579;42.690;2.586;2023-10-09T12:26:38;97874.16;;;27.65;37.14
30873;BME280;17579;42.690;2.586;2023-10-09T12:29:05;97872.50;;;27.76;36.68
30873;BME280;17579;42.690;2.586;2023-10-09T12:31:39;97866.19;;;27.88;36.58
30873;BME280;17579;42.690;2.586;2023-10-09T12:34:28;97862.66;;;27.87;36.86
30873;BME280;17579;42.690;2.586;2023-10-09T12:37:22;97861.25;;;27.85;37.27
30873;BME280;17579;42.690;2.586;2023-10-09T12:40:36;97865.69;;;27.91;37.47
30873;BME280;17579;42.690;2.586;2023-10-09T12:42:38;97859.91;;;27.99;37.26
30873;BME280;17579;42.690;2.586;2023-10-09T12:45:08;97865.81;;;27.96;37.24
30873;BME280;17579;42.690;2.586;2023-10-09T12:50:34;97860.50;;;27.89;37.65
30873;BME280;17579;42.690;2.586;2023-10-09T12:53:10;97856.28;;;27.81;37.80
30873;BME280;17579;42.690;2.586;2023-10-09T12:55:39;97858.53;;;27.85;37.73
30873;BME280;17579;42.690;2.586;2023-10-09T12:58:07;97855.41;;;27.93;37.82
30873;BME280;17579;42.690;2.586;2023-10-09T13:00:35;97852.47;;;27.94;37.97
30873;BME280;17579;42.690;2.586;2023-10-09T13:03:09;97856.34;;;27.98;37.71
30873;BME280;17579;42.690;2.586;2023-10-09T13:05:36;97854.22;;;28.00;37.88
30873;BME280;17579;42.690;2.586;2023-10-09T13:08:02;97851.75;;;27.99;37.08
30873;BME280;17579;42.690;2.586;2023-10-09T13:10:28;97855.41;;;27.93;38.34
30873;BME280;17579;42.690;2.586;2023-10-09T13:12:59;97852.81;;;27.98;38.01
30873;BME280;17579;42.690;2.586;2023-10-09T13:15:35;97848.78;;;28.00;37.94
30873;BME280;17579;42.690;2.586;2023-10-09T13:18:10;97843.34;;;28.00;37.49
30873;BME280;17579;42.690;2.586;2023-10-09T13:20:38;97841.69;;;27.99;37.50
30873;BME280;17579;42.690;2.586;2023-10-09T13:23:07;97837.91;;;28.00;37.86
30873;BME280;17579;42.690;2.586;2023-10-09T13:25:35;97835.63;;;28.09;37.29
30873;BME280;17579;42.690;2.586;2023-10-09T13:28:25;97834.94;;;28.02;37.73
30873;BME280;17579;42.690;2.586;2023-10-09T13:31:03;97825.75;;;28.20;38.19
30873;BME280;17579;42.690;2.586;2023-10-09T13:33:29;97825.59;;;28.27;38.00
30873;BME280;17579;42.690;2.586;2023-10-09T13:36:20;97826.50;;;28.32;38.24
30873;BME280;17579;42.690;2.586;2023-10-09T13:38:55;97821.16;;;28.38;37.77
30873;BME280;17579;42.690;2.586;2023-10-09T13:41:33;97822.75;;;28.50;37.60
30873;BME280;17579;42.690;2.586;2023-10-09T13:44:00;97826.47;;;28.61;38.19
30873;BME280;17579;42.690;2.586;2023-10-09T13:46:28;97817.53;;;28.83;37.62
30873;BME280;17579;42.690;2.586;2023-10-09T13:48:55;97820.06;;;29.07;37.39
30873;BME280;17579;42.690;2.586;2023-10-09T13:51:23;97827.00;;;29.36;37.50
30873;BME280;17579;42.690;2.586;2023-10-09T13:53:50;97813.56;;;29.52;37.56
30873;BME280;17579;42.690;2.586;2023-10-09T13:56:33;97813.44;;;29.64;38.03
30873;BME280;17579;42.690;2.586;2023-10-09T13:59:04;97816.91;;;29.81;38.52
30873;BME280;17579;42.690;2.586;2023-10-09T14:01:37;97813.44;;;29.86;38.68
30873;BME280;17579;42.690;2.586;2023-10-09T14:04:11;97821.13;;;29.89;38.02
30873;BME280;17579;42.690;2.586;2023-10-09T14:06:43;97812.16;;;29.94;38.66
30873;BME280;17579;42.690;2.586;2023-10-09T14:09:13;97812.25;;;30.04;38.42
30873;BME280;17579;42.690;2.586;2023-10-09T14:11:57;97810.72;;;29.86;38.55
30873;BME280;17579;42.690;2.586;2023-10-09T14:14:55;97807.75;;;29.65;38.70
30873;BME280;17579;42.690;2.586;2023-10-09T14:17:23;97801.16;;;29.61;38.55
30873;BME280;17579;42.690;2.586;2023-10-09T14:19:53;97801.19;;;29.66;38.42
30873;BME280;17579;42.690;2.586;2023-10-09T14:22:23;97797.47;;;29.72;38.60